sensor_id;sensor_type;location;lat;lon;timestamp;P1;durP1;ratioP1;P2;durP2;ratioP2
43216;SDS011;71549;42.686;23.300;2023-07-16T00:01:04;10.77;;;9.77;;
43216;SDS011;71549;42.686;23.300;2023-07-16T00:03:05;10.70;;;8.95;;
43216;SDS011;71549;42.686;23.300;2023-07-16T00:05:05;10.07;;;9.25;;
43216;SDS011;71549;42.686;23.300;2023-07-16T00:07:06;11.52;;;8.15;;
43216;SDS011;71549;42.686;23.300;2023-07-16T00:09:07;9.60;;;8.57;;
43216;SDS011;71549;42.686;23.300;2023-07-16T00:11:07;10.57;;;9.05;;
43216;SDS011;71549;42.686;23.300;2023-07-16T00:13:07;9.75;;;8.85;;
43216;SDS011;71549;42.686;23.300;2023-07-16T00:15:08;9.98;;;8.93;;
43216;SDS011;71549;42.686;23.300;2023-07-16T00:17:09;10.20;;;9.30;;
43216;SDS011;71549;42.686;23.300;2023-07-16T00:19:11;12.35;;;8.25;;
43216;SDS011;71549;42.686;23.300;2023-07-16T00:21:13;9.17;;;8.10;;
43216;SDS011;71549;42.686;23.300;2023-07-16T00:23:13;9.70;;;8.27;;
43216;SDS011;71549;42.686;23.300;2023-07-16T00:25:14;8.82;;;8.00;;
43216;SDS011;71549;42.686;23.300;2023-07-16T00:27:14;8.43;;;7.53;;
43216;SDS011;71549;42.686;23.300;2023-07-16T00:29:15;8.70;;;7.80;;
43216;SDS011;71549;42.686;23.300;2023-07-16T00:31:15;10.02;;;8.48;;
43216;SDS011;71549;42.686;23.300;2023-07-16T00:33:16;8.93;;;8.00;;
43216;SDS011;71549;42.686;23.300;2023-07-16T00:35:16;9.63;;;7.85;;
43216;SDS011;71549;42.686;23.300;2023-07-16T00:37:17;8.35;;;7.60;;
43216;SDS011;71549;42.686;23.300;2023-07-16T00:39:17;8.32;;;7.53;;
43216;SDS011;71549;42.686;23.300;2023-07-16T00:41:17;9.05;;;7.80;;
43216;SDS011;71549;42.686;23.300;2023-07-16T00:43:18;14.77;;;7.95;;
43216;SDS011;71549;42.686;23.300;2023-07-16T00:45:18;11.45;;;7.72;;
43216;SDS011;71549;42.686;23.300;2023-07-16T00:47:19;7.95;;;7.18;;
43216;SDS011;71549;42.686;23.300;2023-07-16T00:49:20;7.95;;;7.18;;
43216;SDS011;71549;42.686;23.300;2023-07-16T00:51:21;7.60;;;6.88;;
43216;SDS011;71549;42.686;23.300;2023-07-16T00:53:22;12.52;;;6.63;;
43216;SDS011;71549;42.686;23.300;2023-07-16T00:55:23;8.57;;;6.45;;
43216;SDS011;71549;42.686;23.300;2023-07-16T00:57:23;8.15;;;6.82;;
43216;SDS011;71549;42.686;23.300;2023-07-16T00:59:24;7.70;;;6.65;;
43216;SDS011;71549;42.686;23.300;2023-07-16T01:01:24;7.32;;;6.40;;
43216;SDS011;71549;42.686;23.300;2023-07-16T01:03:26;10.98;;;6.63;;
43216;SDS011;71549;42.686;23.300;2023-07-16T01:05:28;8.85;;;6.50;;
43216;SDS011;71549;42.686;23.300;2023-07-16T01:07:34;9.40;;;6.88;;
43216;SDS011;71549;42.686;23.300;2023-07-16T01:09:37;8.80;;;6.28;;
43216;SDS011;71549;42.686;23.300;2023-07-16T01:11:42;6.93;;;5.80;;
43216;SDS011;71549;42.686;23.300;2023-07-16T01:13:43;6.25;;;5.63;;
43216;SDS011;71549;42.686;23.300;2023-07-16T01:15:44;7.85;;;5.43;;
43216;SDS011;71549;42.686;23.300;2023-07-16T01:17:45;7.70;;;5.70;;
43216;SDS011;71549;42.686;23.300;2023-07-16T01:19:45;6.88;;;6.07;;
43216;SDS011;71549;42.686;23.300;2023-07-16T01:24:44;8.07;;;6.55;;
43216;SDS011;71549;42.686;23.300;2023-07-16T01:31:19;6.13;;;5.55;;
43216;SDS011;71549;42.686;23.300;2023-07-16T01:33:22;6.50;;;5.68;;
43216;SDS011;71549;42.686;23.300;2023-07-16T01:35:24;7.28;;;6.25;;
43216;SDS011;71549;42.686;23.300;2023-07-16T01:37:26;6.05;;;5.45;;
43216;SDS011;71549;42.686;23.300;2023-07-16T01:39:26;6.57;;;5.72;;
43216;SDS011;71549;42.686;23.300;2023-07-16T01:41:27;7.15;;;6.18;;
43216;SDS011;71549;42.686;23.300;2023-07-16T01:43:27;5.80;;;5.20;;
43216;SDS011;71549;42.686;23.300;2023-07-16T01:45:28;6.18;;;5.05;;
43216;SDS011;71549;42.686;23.300;2023-07-16T01:49:29;6.63;;;5.70;;
43216;SDS011;71549;42.686;23.300;2023-07-16T01:51:29;6.57;;;5.57;;
43216;SDS011;71549;42.686;23.300;2023-07-16T01:53:29;6.20;;;5.60;;
43216;SDS011;71549;42.686;23.300;2023-07-16T01:55:31;7.15;;;5.35;;
43216;SDS011;71549;42.686;23.300;2023-07-16T01:57:32;5.93;;;5.32;;
43216;SDS011;71549;42.686;23.300;2023-07-16T01:59:33;6.80;;;5.57;;
43216;SDS011;71549;42.686;23.300;2023-07-16T02:01:33;6.03;;;5.43;;
43216;SDS011;71549;42.686;23.300;2023-07-16T02:03:33;5.55;;;4.95;;
43216;SDS011;71549;42.686;23.300;2023-07-16T02:05:34;6.30;;;5.70;;
43216;SDS011;71549;42.686;23.300;2023-07-16T02:07:35;5.72;;;5.22;;
43216;SDS011;71549;42.686;23.300;2023-07-16T02:09:35;5.85;;;5.22;;
43216;SDS011;71549;42.686;23.300;2023-07-16T02:11:36;6.30;;;5.07;;
43216;SDS011;71549;42.686;23.300;2023-07-16T02:13:36;6.45;;;5.68;;
43216;SDS011;71549;42.686;23.300;2023-07-16T02:15:36;5.78;;;5.28;;
43216;SDS011;71549;42.686;23.300;2023-07-16T02:17:37;5.20;;;4.70;;
43216;SDS011;71549;42.686;23.300;2023-07-16T02:19:37;4.93;;;4.53;;
43216;SDS011;71549;42.686;23.300;2023-07-16T02:21:38;6.15;;;5.53;;
43216;SDS011;71549;42.686;23.300;2023-07-16T02:23:38;5.70;;;5.20;;
43216;SDS011;71549;42.686;23.300;2023-07-16T02:25:38;5.18;;;4.75;;
43216;SDS011;71549;42.686;23.300;2023-07-16T02:27:39;6.03;;;5.10;;
43216;SDS011;71549;42.686;23.300;2023-07-16T02:29:39;5.93;;;5.13;;
43216;SDS011;71549;42.686;23.300;2023-07-16T02:31:40;7.30;;;5.22;;
43216;SDS011;71549;42.686;23.300;2023-07-16T02:33:40;5.60;;;4.40;;
43216;SDS011;71549;42.686;23.300;2023-07-16T02:35:45;6.35;;;4.93;;
43216;SDS011;71549;42.686;23.300;2023-07-16T02:37:47;5.15;;;4.65;;
43216;SDS011;71549;42.686;23.300;2023-07-16T02:39:47;4.85;;;4.45;;
43216;SDS011;71549;42.686;23.300;2023-07-16T02:41:47;5.80;;;4.55;;
43216;SDS011;71549;42.686;23.300;2023-07-16T02:43:48;5.03;;;4.63;;
43216;SDS011;71549;42.686;23.300;2023-07-16T02:46:01;5.00;;;4.47;;
43216;SDS011;71549;42.686;23.300;2023-07-16T02:48:02;6.63;;;5.43;;
43216;SDS011;71549;42.686;23.300;2023-07-16T02:50:03;5.22;;;4.47;;
43216;SDS011;71549;42.686;23.300;2023-07-16T02:52:04;6.07;;;4.90;;
43216;SDS011;71549;42.686;23.300;2023-07-16T02:54:05;5.03;;;4.50;;
43216;SDS011;71549;42.686;23.300;2023-07-16T02:56:06;5.28;;;4.38;;
43216;SDS011;71549;42.686;23.300;2023-07-16T02:58:07;6.03;;;5.07;;
43216;SDS011;71549;42.686;23.300;2023-07-16T03:00:07;5.55;;;5.00;;
43216;SDS011;71549;42.686;23.300;2023-07-16T03:02:08;5.25;;;4.75;;
43216;SDS011;71549;42.686;23.300;2023-07-16T03:04:09;5.25;;;4.75;;
43216;SDS011;71549;42.686;23.300;2023-07-16T03:06:10;4.85;;;4.28;;
43216;SDS011;71549;42.686;23.300;2023-07-16T03:08:10;6.20;;;4.68;;
43216;SDS011;71549;42.686;23.300;2023-07-16T03:10:11;5.40;;;4.85;;
43216;SDS011;71549;42.686;23.300;2023-07-16T03:12:11;5.55;;;4.53;;
43216;SDS011;71549;42.686;23.300;2023-07-16T03:14:11;4.82;;;4.25;;
43216;SDS011;71549;42.686;23.300;2023-07-16T03:16:12;4.80;;;4.28;;
43216;SDS011;71549;42.686;23.300;2023-07-16T03:18:12;5.35;;;4.30;;
43216;SDS011;71549;42.686;23.300;2023-07-16T03:20:13;4.57;;;4.18;;
43216;SDS011;71549;42.686;23.300;2023-07-16T03:22:13;5.30;;;4.80;;
43216;SDS011;71549;42.686;23.300;2023-07-16T03:24:14;6.90;;;4.68;;
43216;SDS011;71549;42.686;23.300;2023-07-16T03:26:14;5.20;;;4.40;;
43216;SDS011;71549;42.686;23.300;2023-07-16T03:28:15;8.30;;;4.60;;
43216;SDS011;71549;42.686;23.300;2023-07-16T03:30:15;5.05;;;4.43;;
43216;SDS011;71549;42.686;23.300;2023-07-16T03:32:15;4.80;;;4.25;;
43216;SDS011;71549;42.686;23.300;2023-07-16T03:34:16;4.55;;;4.15;;
43216;SDS011;71549;42.686;23.300;2023-07-16T03:36:18;4.32;;;3.80;;
43216;SDS011;71549;42.686;23.300;2023-07-16T03:38:18;4.40;;;4.00;;
43216;SDS011;71549;42.686;23.300;2023-07-16T03:40:23;7.80;;;4.88;;
43216;SDS011;71549;42.686;23.300;2023-07-16T03:42:25;6.53;;;4.50;;
43216;SDS011;71549;42.686;23.300;2023-07-16T03:44:25;9.15;;;4.40;;
43216;SDS011;71549;42.686;23.300;2023-07-16T03:46:26;4.90;;;4.32;;
43216;SDS011;71549;42.686;23.300;2023-07-16T03:48:26;5.00;;;4.50;;
43216;SDS011;71549;42.686;23.300;2023-07-16T03:50:27;4.95;;;4.45;;
43216;SDS011;71549;42.686;23.300;2023-07-16T03:52:27;6.70;;;4.63;;
43216;SDS011;71549;42.686;23.300;2023-07-16T03:54:29;6.10;;;4.40;;
43216;SDS011;71549;42.686;23.300;2023-07-16T03:56:29;5.10;;;4.38;;
43216;SDS011;71549;42.686;23.300;2023-07-16T03:58:29;8.57;;;4.65;;
43216;SDS011;71549;42.686;23.300;2023-07-16T04:00:30;5.43;;;4.65;;
43216;SDS011;71549;42.686;23.300;2023-07-16T04:02:31;9.57;;;4.82;;
43216;SDS011;71549;42.686;23.300;2023-07-16T04:04:31;6.63;;;4.82;;
43216;SDS011;71549;42.686;23.300;2023-07-16T04:06:32;6.70;;;4.70;;
43216;SDS011;71549;42.686;23.300;2023-07-16T04:08:32;5.40;;;4.90;;
43216;SDS011;71549;42.686;23.300;2023-07-16T04:10:32;7.15;;;4.95;;
43216;SDS011;71549;42.686;23.300;2023-07-16T04:12:33;9.10;;;5.32;;
43216;SDS011;71549;42.686;23.300;2023-07-16T04:14:33;6.25;;;4.68;;
43216;SDS011;71549;42.686;23.300;2023-07-16T04:16:34;8.93;;;4.60;;
43216;SDS011;71549;42.686;23.300;2023-07-16T04:18:34;6.38;;;4.88;;
43216;SDS011;71549;42.686;23.300;2023-07-16T04:20:35;6.70;;;4.82;;
43216;SDS011;71549;42.686;23.300;2023-07-16T04:22:35;5.53;;;4.30;;
43216;SDS011;71549;42.686;23.300;2023-07-16T04:24:36;11.05;;;5.55;;
43216;SDS011;71549;42.686;23.300;2023-07-16T04:26:37;5.97;;;4.65;;
43216;SDS011;71549;42.686;23.300;2023-07-16T04:28:37;7.95;;;4.22;;
43216;SDS011;71549;42.686;23.300;2023-07-16T04:30:39;6.68;;;4.32;;
43216;SDS011;71549;42.686;23.300;2023-07-16T04:32:40;6.60;;;4.32;;
43216;SDS011;71549;42.686;23.300;2023-07-16T04:34:40;8.13;;;4.88;;
43216;SDS011;71549;42.686;23.300;2023-07-16T04:36:41;6.05;;;4.50;;
43216;SDS011;71549;42.686;23.300;2023-07-16T04:38:42;6.72;;;4.70;;
43216;SDS011;71549;42.686;23.300;2023-07-16T04:40:42;5.05;;;4.53;;
43216;SDS011;71549;42.686;23.300;2023-07-16T04:42:44;5.15;;;4.47;;
43216;SDS011;71549;42.686;23.300;2023-07-16T04:44:45;5.55;;;4.38;;
43216;SDS011;71549;42.686;23.300;2023-07-16T04:46:45;5.70;;;5.20;;
43216;SDS011;71549;42.686;23.300;2023-07-16T04:48:46;6.18;;;4.80;;
43216;SDS011;71549;42.686;23.300;2023-07-16T04:50:47;5.30;;;4.68;;
43216;SDS011;71549;42.686;23.300;2023-07-16T04:52:47;7.55;;;4.55;;
43216;SDS011;71549;42.686;23.300;2023-07-16T04:54:48;7.18;;;4.20;;
43216;SDS011;71549;42.686;23.300;2023-07-16T04:56:48;7.35;;;4.43;;
43216;SDS011;71549;42.686;23.300;2023-07-16T04:58:49;4.97;;;4.45;;
43216;SDS011;71549;42.686;23.300;2023-07-16T05:00:49;7.82;;;4.50;;
43216;SDS011;71549;42.686;23.300;2023-07-16T05:02:50;4.93;;;4.22;;
43216;SDS011;71549;42.686;23.300;2023-07-16T05:04:50;4.05;;;3.65;;
43216;SDS011;71549;42.686;23.300;2023-07-16T05:06:51;4.90;;;4.07;;
43216;SDS011;71549;42.686;23.300;2023-07-16T05:08:52;4.78;;;4.38;;
43216;SDS011;71549;42.686;23.300;2023-07-16T05:10:52;4.70;;;3.97;;
43216;SDS011;71549;42.686;23.300;2023-07-16T05:12:53;6.75;;;4.20;;
43216;SDS011;71549;42.686;23.300;2023-07-16T05:14:53;4.63;;;4.05;;
43216;SDS011;71549;42.686;23.300;2023-07-16T05:16:54;4.50;;;4.10;;
43216;SDS011;71549;42.686;23.300;2023-07-16T05:18:55;5.43;;;4.20;;
43216;SDS011;71549;42.686;23.300;2023-07-16T05:20:56;5.65;;;4.07;;
43216;SDS011;71549;42.686;23.300;2023-07-16T05:22:56;4.95;;;3.97;;
43216;SDS011;71549;42.686;23.300;2023-07-16T05:24:57;5.05;;;4.50;;
43216;SDS011;71549;42.686;23.300;2023-07-16T05:26:57;4.78;;;4.28;;
43216;SDS011;71549;42.686;23.300;2023-07-16T05:28:57;4.78;;;4.47;;
43216;SDS011;71549;42.686;23.300;2023-07-16T05:30:59;6.45;;;4.45;;
43216;SDS011;71549;42.686;23.300;2023-07-16T05:33:00;5.25;;;4.07;;
43216;SDS011;71549;42.686;23.300;2023-07-16T05:35:00;5.75;;;4.25;;
43216;SDS011;71549;42.686;23.300;2023-07-16T05:37:01;4.22;;;3.67;;
43216;SDS011;71549;42.686;23.300;2023-07-16T05:39:01;4.55;;;4.15;;
43216;SDS011;71549;42.686;23.300;2023-07-16T05:41:02;5.95;;;3.85;;
43216;SDS011;71549;42.686;23.300;2023-07-16T05:43:04;4.50;;;4.05;;
43216;SDS011;71549;42.686;23.300;2023-07-16T05:45:05;5.22;;;4.05;;
43216;SDS011;71549;42.686;23.300;2023-07-16T05:47:06;5.78;;;3.72;;
43216;SDS011;71549;42.686;23.300;2023-07-16T05:49:06;4.65;;;3.90;;
43216;SDS011;71549;42.686;23.300;2023-07-16T05:51:07;6.18;;;3.92;;
43216;SDS011;71549;42.686;23.300;2023-07-16T05:53:07;5.35;;;3.90;;
43216;SDS011;71549;42.686;23.300;2023-07-16T05:55:08;4.40;;;4.00;;
43216;SDS011;71549;42.686;23.300;2023-07-16T05:57:08;5.53;;;4.07;;
43216;SDS011;71549;42.686;23.300;2023-07-16T05:59:09;5.78;;;4.28;;
43216;SDS011;71549;42.686;23.300;2023-07-16T06:01:09;5.10;;;4.03;;
43216;SDS011;71549;42.686;23.300;2023-07-16T06:03:09;4.63;;;4.22;;
43216;SDS011;71549;42.686;23.300;2023-07-16T06:05:11;4.28;;;3.80;;
43216;SDS011;71549;42.686;23.300;2023-07-16T06:07:12;4.75;;;3.75;;
43216;SDS011;71549;42.686;23.300;2023-07-16T06:09:13;4.10;;;3.60;;
43216;SDS011;71549;42.686;23.300;2023-07-16T06:11:14;4.38;;;4.00;;
43216;SDS011;71549;42.686;23.300;2023-07-16T06:13:14;5.13;;;4.25;;
43216;SDS011;71549;42.686;23.300;2023-07-16T06:15:15;4.25;;;3.85;;
43216;SDS011;71549;42.686;23.300;2023-07-16T06:17:15;4.57;;;4.13;;
43216;SDS011;71549;42.686;23.300;2023-07-16T06:19:16;5.03;;;3.60;;
43216;SDS011;71549;42.686;23.300;2023-07-16T06:21:16;6.50;;;4.13;;
43216;SDS011;71549;42.686;23.300;2023-07-16T06:23:16;4.95;;;4.18;;
43216;SDS011;71549;42.686;23.300;2023-07-16T06:25:17;5.03;;;3.92;;
43216;SDS011;71549;42.686;23.300;2023-07-16T06:27:17;4.22;;;3.83;;
43216;SDS011;71549;42.686;23.300;2023-07-16T06:29:18;3.97;;;3.67;;
43216;SDS011;71549;42.686;23.300;2023-07-16T06:31:18;4.13;;;3.50;;
43216;SDS011;71549;42.686;23.300;2023-07-16T06:33:19;4.47;;;4.00;;
43216;SDS011;71549;42.686;23.300;2023-07-16T06:35:19;4.75;;;4.00;;
43216;SDS011;71549;42.686;23.300;2023-07-16T06:37:20;5.40;;;4.03;;
43216;SDS011;71549;42.686;23.300;2023-07-16T06:39:23;4.45;;;4.05;;
43216;SDS011;71549;42.686;23.300;2023-07-16T06:41:23;4.57;;;3.92;;
43216;SDS011;71549;42.686;23.300;2023-07-16T06:43:24;4.28;;;3.88;;
43216;SDS011;71549;42.686;23.300;2023-07-16T06:45:25;6.18;;;3.97;;
43216;SDS011;71549;42.686;23.300;2023-07-16T06:47:25;4.55;;;4.03;;
43216;SDS011;71549;42.686;23.300;2023-07-16T06:49:26;5.32;;;4.35;;
43216;SDS011;71549;42.686;23.300;2023-07-16T06:51:26;3.92;;;3.58;;
43216;SDS011;71549;42.686;23.300;2023-07-16T06:53:29;5.47;;;3.92;;
43216;SDS011;71549;42.686;23.300;2023-07-16T06:55:29;5.80;;;4.45;;
43216;SDS011;71549;42.686;23.300;2023-07-16T06:57:30;6.60;;;3.53;;
43216;SDS011;71549;42.686;23.300;2023-07-16T06:59:30;5.28;;;4.32;;
43216;SDS011;71549;42.686;23.300;2023-07-16T07:01:31;4.93;;;4.30;;
43216;SDS011;71549;42.686;23.300;2023-07-16T07:03:31;4.18;;;3.78;;
43216;SDS011;71549;42.686;23.300;2023-07-16T07:05:33;6.38;;;3.90;;
43216;SDS011;71549;42.686;23.300;2023-07-16T07:07:36;4.85;;;3.33;;
43216;SDS011;71549;42.686;23.300;2023-07-16T07:09:36;4.68;;;4.28;;
43216;SDS011;71549;42.686;23.300;2023-07-16T07:11:36;5.03;;;3.58;;
43216;SDS011;71549;42.686;23.300;2023-07-16T07:13:37;4.47;;;3.85;;
43216;SDS011;71549;42.686;23.300;2023-07-16T07:15:37;6.20;;;4.00;;
43216;SDS011;71549;42.686;23.300;2023-07-16T07:17:38;4.15;;;3.58;;
43216;SDS011;71549;42.686;23.300;2023-07-16T07:19:41;4.05;;;3.25;;
43216;SDS011;71549;42.686;23.300;2023-07-16T07:21:41;4.93;;;3.88;;
43216;SDS011;71549;42.686;23.300;2023-07-16T07:23:42;4.40;;;3.95;;
43216;SDS011;71549;42.686;23.300;2023-07-16T07:25:42;3.90;;;3.47;;
43216;SDS011;71549;42.686;23.300;2023-07-16T07:27:43;4.97;;;3.70;;
43216;SDS011;71549;42.686;23.300;2023-07-16T07:29:43;3.80;;;3.47;;
43216;SDS011;71549;42.686;23.300;2023-07-16T07:31:44;4.53;;;4.13;;
43216;SDS011;71549;42.686;23.300;2023-07-16T07:33:44;4.40;;;4.00;;
43216;SDS011;71549;42.686;23.300;2023-07-16T07:35:44;4.25;;;3.60;;
43216;SDS011;71549;42.686;23.300;2023-07-16T07:37:45;4.38;;;3.78;;
43216;SDS011;71549;42.686;23.300;2023-07-16T07:39:45;4.45;;;3.92;;
43216;SDS011;71549;42.686;23.300;2023-07-16T07:41:51;3.85;;;3.40;;
43216;SDS011;71549;42.686;23.300;2023-07-16T07:43:51;4.07;;;3.50;;
43216;SDS011;71549;42.686;23.300;2023-07-16T07:45:51;3.53;;;3.22;;
43216;SDS011;71549;42.686;23.300;2023-07-16T07:47:52;3.65;;;3.35;;
43216;SDS011;71549;42.686;23.300;2023-07-16T07:49:53;5.47;;;3.58;;
43216;SDS011;71549;42.686;23.300;2023-07-16T07:51:53;6.53;;;4.07;;
43216;SDS011;71549;42.686;23.300;2023-07-16T07:53:55;3.35;;;3.08;;
43216;SDS011;71549;42.686;23.300;2023-07-16T07:55:55;3.83;;;3.53;;
43216;SDS011;71549;42.686;23.300;2023-07-16T07:57:55;3.42;;;3.13;;
43216;SDS011;71549;42.686;23.300;2023-07-16T07:59:56;4.10;;;3.70;;
43216;SDS011;71549;42.686;23.300;2023-07-16T08:01:57;4.05;;;3.38;;
43216;SDS011;71549;42.686;23.300;2023-07-16T08:03:58;3.65;;;3.35;;
43216;SDS011;71549;42.686;23.300;2023-07-16T08:05:59;3.92;;;3.33;;
43216;SDS011;71549;42.686;23.300;2023-07-16T08:07:59;4.47;;;3.65;;
43216;SDS011;71549;42.686;23.300;2023-07-16T08:10:00;4.68;;;3.95;;
43216;SDS011;71549;42.686;23.300;2023-07-16T08:12:00;4.32;;;3.85;;
43216;SDS011;71549;42.686;23.300;2023-07-16T08:14:01;4.95;;;3.78;;
43216;SDS011;71549;42.686;23.300;2023-07-16T08:16:01;4.75;;;4.35;;
43216;SDS011;71549;42.686;23.300;2023-07-16T08:18:01;4.70;;;3.78;;
43216;SDS011;71549;42.686;23.300;2023-07-16T08:20:02;4.43;;;3.40;;
43216;SDS011;71549;42.686;23.300;2023-07-16T08:22:04;5.15;;;3.63;;
43216;SDS011;71549;42.686;23.300;2023-07-16T08:24:05;5.95;;;3.55;;
43216;SDS011;71549;42.686;23.300;2023-07-16T08:26:06;5.05;;;3.50;;
43216;SDS011;71549;42.686;23.300;2023-07-16T08:28:07;4.32;;;3.60;;
43216;SDS011;71549;42.686;23.300;2023-07-16T08:30:09;3.63;;;3.30;;
43216;SDS011;71549;42.686;23.300;2023-07-16T08:32:09;4.50;;;3.92;;
43216;SDS011;71549;42.686;23.300;2023-07-16T08:34:09;4.35;;;3.97;;
43216;SDS011;71549;42.686;23.300;2023-07-16T08:36:11;3.67;;;3.35;;
43216;SDS011;71549;42.686;23.300;2023-07-16T08:38:11;3.90;;;3.47;;
43216;SDS011;71549;42.686;23.300;2023-07-16T08:40:12;4.63;;;3.50;;
43216;SDS011;71549;42.686;23.300;2023-07-16T08:42:12;4.38;;;3.53;;
43216;SDS011;71549;42.686;23.300;2023-07-16T08:44:14;5.20;;;3.53;;
43216;SDS011;71549;42.686;23.300;2023-07-16T08:46:17;5.50;;;3.55;;
43216;SDS011;71549;42.686;23.300;2023-07-16T08:48:18;4.90;;;4.10;;
43216;SDS011;71549;42.686;23.300;2023-07-16T08:50:19;4.43;;;4.03;;
43216;SDS011;71549;42.686;23.300;2023-07-16T08:52:21;5.57;;;4.03;;
43216;SDS011;71549;42.686;23.300;2023-07-16T08:54:22;4.80;;;4.13;;
43216;SDS011;71549;42.686;23.300;2023-07-16T08:56:23;4.88;;;3.75;;
43216;SDS011;71549;42.686;23.300;2023-07-16T08:58:24;4.10;;;3.53;;
43216;SDS011;71549;42.686;23.300;2023-07-16T09:00:25;4.22;;;3.45;;
43216;SDS011;71549;42.686;23.300;2023-07-16T09:02:26;4.25;;;3.47;;
43216;SDS011;71549;42.686;23.300;2023-07-16T09:04:27;4.38;;;3.72;;
43216;SDS011;71549;42.686;23.300;2023-07-16T09:06:29;4.80;;;3.60;;
43216;SDS011;71549;42.686;23.300;2023-07-16T09:08:30;4.40;;;3.95;;
43216;SDS011;71549;42.686;23.300;2023-07-16T09:10:30;4.30;;;3.72;;
43216;SDS011;71549;42.686;23.300;2023-07-16T09:12:31;3.95;;;3.65;;
43216;SDS011;71549;42.686;23.300;2023-07-16T09:14:31;3.50;;;3.20;;
43216;SDS011;71549;42.686;23.300;2023-07-16T09:16:32;4.97;;;3.45;;
43216;SDS011;71549;42.686;23.300;2023-07-16T09:18:35;3.85;;;3.47;;
43216;SDS011;71549;42.686;23.300;2023-07-16T09:20:35;5.00;;;3.55;;
43216;SDS011;71549;42.686;23.300;2023-07-16T09:22:35;4.60;;;4.20;;
43216;SDS011;71549;42.686;23.300;2023-07-16T09:24:37;4.05;;;3.65;;
43216;SDS011;71549;42.686;23.300;2023-07-16T09:26:37;5.90;;;4.03;;
43216;SDS011;71549;42.686;23.300;2023-07-16T09:28:38;4.35;;;3.95;;
43216;SDS011;71549;42.686;23.300;2023-07-16T09:30:39;3.88;;;3.25;;
43216;SDS011;71549;42.686;23.300;2023-07-16T09:32:41;3.67;;;3.30;;
43216;SDS011;71549;42.686;23.300;2023-07-16T09:34:43;5.53;;;3.88;;
43216;SDS011;71549;42.686;23.300;2023-07-16T09:36:49;4.70;;;3.92;;
43216;SDS011;71549;42.686;23.300;2023-07-16T09:38:56;5.25;;;3.80;;
43216;SDS011;71549;42.686;23.300;2023-07-16T09:43:41;4.00;;;3.65;;
43216;SDS011;71549;42.686;23.300;2023-07-16T09:45:55;4.13;;;3.70;;
43216;SDS011;71549;42.686;23.300;2023-07-16T09:47:58;3.88;;;3.40;;
43216;SDS011;71549;42.686;23.300;2023-07-16T09:52:54;3.72;;;3.20;;
43216;SDS011;71549;42.686;23.300;2023-07-16T09:54:56;5.40;;;4.03;;
43216;SDS011;71549;42.686;23.300;2023-07-16T09:56:57;4.65;;;3.85;;
43216;SDS011;71549;42.686;23.300;2023-07-16T09:59:00;5.93;;;4.05;;
43216;SDS011;71549;42.686;23.300;2023-07-16T10:01:01;4.03;;;3.72;;
43216;SDS011;71549;42.686;23.300;2023-07-16T10:03:05;4.65;;;3.83;;
43216;SDS011;71549;42.686;23.300;2023-07-16T10:05:13;4.68;;;3.30;;
43216;SDS011;71549;42.686;23.300;2023-07-16T10:07:23;4.07;;;3.67;;
43216;SDS011;71549;42.686;23.300;2023-07-16T10:11:40;4.10;;;3.05;;
43216;SDS011;71549;42.686;23.300;2023-07-16T10:13:41;3.90;;;3.58;;
43216;SDS011;71549;42.686;23.300;2023-07-16T10:15:51;5.13;;;4.22;;
43216;SDS011;71549;42.686;23.300;2023-07-16T10:17:53;5.68;;;3.83;;
43216;SDS011;71549;42.686;23.300;2023-07-16T10:22:06;4.38;;;3.78;;
43216;SDS011;71549;42.686;23.300;2023-07-16T10:24:15;4.18;;;3.58;;
43216;SDS011;71549;42.686;23.300;2023-07-16T10:26:18;5.78;;;4.07;;
43216;SDS011;71549;42.686;23.300;2023-07-16T10:28:18;4.97;;;3.92;;
43216;SDS011;71549;42.686;23.300;2023-07-16T10:30:19;4.32;;;3.65;;
43216;SDS011;71549;42.686;23.300;2023-07-16T10:32:20;4.68;;;3.60;;
43216;SDS011;71549;42.686;23.300;2023-07-16T10:34:22;5.30;;;3.85;;
43216;SDS011;71549;42.686;23.300;2023-07-16T10:36:24;5.85;;;4.40;;
43216;SDS011;71549;42.686;23.300;2023-07-16T10:38:24;4.90;;;4.40;;
43216;SDS011;71549;42.686;23.300;2023-07-16T10:40:25;4.55;;;3.55;;
43216;SDS011;71549;42.686;23.300;2023-07-16T10:42:26;4.25;;;3.90;;
43216;SDS011;71549;42.686;23.300;2023-07-16T10:44:27;4.05;;;3.65;;
43216;SDS011;71549;42.686;23.300;2023-07-16T10:46:27;4.28;;;3.88;;
43216;SDS011;71549;42.686;23.300;2023-07-16T10:48:28;7.30;;;4.28;;
43216;SDS011;71549;42.686;23.300;2023-07-16T10:50:32;4.45;;;3.70;;
43216;SDS011;71549;42.686;23.300;2023-07-16T10:52:34;4.57;;;4.13;;
43216;SDS011;71549;42.686;23.300;2023-07-16T10:54:36;4.28;;;3.88;;
43216;SDS011;71549;42.686;23.300;2023-07-16T10:56:36;4.05;;;3.65;;
43216;SDS011;71549;42.686;23.300;2023-07-16T10:58:37;4.47;;;4.07;;
43216;SDS011;71549;42.686;23.300;2023-07-16T11:00:41;5.28;;;4.35;;
43216;SDS011;71549;42.686;23.300;2023-07-16T11:02:41;4.82;;;4.25;;
43216;SDS011;71549;42.686;23.300;2023-07-16T11:04:44;4.55;;;3.60;;
43216;SDS011;71549;42.686;23.300;2023-07-16T11:06:45;4.82;;;4.28;;
43216;SDS011;71549;42.686;23.300;2023-07-16T11:08:46;3.90;;;3.60;;
43216;SDS011;71549;42.686;23.300;2023-07-16T11:10:52;4.22;;;3.90;;
43216;SDS011;71549;42.686;23.300;2023-07-16T11:12:54;4.05;;;3.65;;
43216;SDS011;71549;42.686;23.300;2023-07-16T11:14:55;5.15;;;4.65;;
43216;SDS011;71549;42.686;23.300;2023-07-16T11:17:03;4.25;;;3.85;;
43216;SDS011;71549;42.686;23.300;2023-07-16T11:19:07;4.43;;;3.97;;
43216;SDS011;71549;42.686;23.300;2023-07-16T11:21:08;7.00;;;4.35;;
43216;SDS011;71549;42.686;23.300;2023-07-16T11:23:09;5.88;;;4.13;;
43216;SDS011;71549;42.686;23.300;2023-07-16T11:25:11;4.70;;;4.32;;
43216;SDS011;71549;42.686;23.300;2023-07-16T11:27:22;4.78;;;4.22;;
43216;SDS011;71549;42.686;23.300;2023-07-16T11:29:25;5.70;;;4.20;;
43216;SDS011;71549;42.686;23.300;2023-07-16T11:31:25;4.75;;;4.35;;
43216;SDS011;71549;42.686;23.300;2023-07-16T11:33:34;5.03;;;4.63;;
43216;SDS011;71549;42.686;23.300;2023-07-16T11:35:35;4.65;;;4.20;;
43216;SDS011;71549;42.686;23.300;2023-07-16T11:37:36;4.53;;;4.10;;
43216;SDS011;71549;42.686;23.300;2023-07-16T11:39:37;4.53;;;4.13;;
43216;SDS011;71549;42.686;23.300;2023-07-16T11:41:38;4.35;;;3.95;;
43216;SDS011;71549;42.686;23.300;2023-07-16T11:43:39;5.90;;;4.13;;
43216;SDS011;71549;42.686;23.300;2023-07-16T11:45:46;5.07;;;4.63;;
43216;SDS011;71549;42.686;23.300;2023-07-16T11:47:48;5.07;;;4.57;;
43216;SDS011;71549;42.686;23.300;2023-07-16T11:49:49;4.43;;;3.97;;
43216;SDS011;71549;42.686;23.300;2023-07-16T11:51:50;4.80;;;4.28;;
43216;SDS011;71549;42.686;23.300;2023-07-16T11:53:50;5.00;;;4.50;;
43216;SDS011;71549;42.686;23.300;2023-07-16T11:55:51;4.93;;;4.53;;
43216;SDS011;71549;42.686;23.300;2023-07-16T11:57:51;5.18;;;4.68;;
43216;SDS011;71549;42.686;23.300;2023-07-16T11:59:51;4.60;;;3.88;;
43216;SDS011;71549;42.686;23.300;2023-07-16T12:01:52;4.47;;;4.07;;
43216;SDS011;71549;42.686;23.300;2023-07-16T12:03:53;4.78;;;4.38;;
43216;SDS011;71549;42.686;23.300;2023-07-16T12:05:54;5.35;;;4.88;;
43216;SDS011;71549;42.686;23.300;2023-07-16T12:07:54;4.35;;;3.95;;
43216;SDS011;71549;42.686;23.300;2023-07-16T12:09:55;4.90;;;3.92;;
43216;SDS011;71549;42.686;23.300;2023-07-16T12:11:56;4.95;;;4.45;;
43216;SDS011;71549;42.686;23.300;2023-07-16T12:13:56;4.85;;;4.35;;
43216;SDS011;71549;42.686;23.300;2023-07-16T12:15:56;4.90;;;4.45;;
43216;SDS011;71549;42.686;23.300;2023-07-16T12:17:57;4.90;;;4.32;;